createdAt,value
2023-02-21T00:00:04.000Z,80.6
2023-02-21T00:01:16.000Z,80.6
2023-02-21T00:02:28.000Z,80.6
2023-02-21T00:03:40.000Z,80.6
2023-02-21T00:04:52.000Z,80.6
2023-02-21T00:06:05.000Z,80.6
2023-02-21T00:07:16.000Z,80.7
2023-02-21T00:08:28.000Z,80.7
2023-02-21T00:09:40.000Z,80.6
2023-02-21T00:10:52.000Z,80.6
2023-02-21T00:12:05.000Z,80.7
2023-02-21T00:13:35.468Z,80.7
2023-02-21T00:14:29.000Z,80.6
2023-02-21T00:15:41.000Z,80.7
2023-02-21T00:16:53.000Z,80.7
2023-02-21T00:18:05.000Z,80.7
2023-02-21T00:19:18.000Z,80.6
2023-02-21T00:20:30.000Z,80.7
2023-02-21T00:21:42.000Z,80.7
2023-02-21T00:22:53.000Z,80.7
2023-02-21T00:24:05.000Z,80.7
2023-02-21T00:25:18.000Z,80.7
2023-02-21T00:26:30.000Z,80.6
2023-02-21T00:27:42.000Z,80.7
2023-02-21T00:28:54.000Z,80.7
2023-02-21T00:30:06.000Z,80.7
2023-02-21T00:31:19.000Z,80.7
2023-02-21T00:32:31.000Z,80.7
2023-02-21T00:33:43.000Z,80.7
2023-02-21T00:34:55.000Z,80.7
2023-02-21T00:36:07.000Z,80.7
2023-02-21T00:37:19.000Z,80.7
2023-02-21T00:38:31.000Z,80.7
2023-02-21T00:39:43.000Z,80.7
2023-02-21T00:40:55.000Z,80.7
2023-02-21T00:42:07.000Z,80.7
2023-02-21T00:43:19.000Z,80.7
2023-02-21T00:44:32.000Z,80.7
2023-02-21T00:45:44.000Z,80.7
2023-02-21T00:46:56.000Z,80.7
2023-02-21T00:48:08.000Z,80.7
2023-02-21T00:49:20.000Z,80.7
2023-02-21T00:50:32.000Z,80.7
2023-02-21T00:51:45.000Z,80.7
2023-02-21T00:52:57.000Z,80.7
2023-02-21T00:54:08.000Z,80.7
2023-02-21T00:55:20.000Z,80.7
2023-02-21T00:56:32.000Z,80.7
2023-02-21T00:57:45.000Z,80.7
2023-02-21T00:58:57.000Z,80.7
2023-02-21T01:00:09.000Z,80.7
2023-02-21T01:01:21.000Z,80.7
2023-02-21T01:02:33.000Z,80.7
2023-02-21T01:03:46.000Z,80.7
2023-02-21T01:04:58.000Z,80.7
2023-02-21T01:06:10.000Z,80.7
2023-02-21T01:07:22.000Z,80.7
2023-02-21T01:08:34.000Z,80.7
2023-02-21T01:09:45.000Z,80.7
2023-02-21T01:10:58.000Z,80.7
2023-02-21T01:12:10.000Z,80.7
2023-02-21T01:13:22.000Z,80.7
2023-02-21T01:14:34.000Z,80.7
2023-02-21T01:15:46.000Z,80.7
2023-02-21T01:17:17.324Z,80.7
2023-02-21T01:18:11.000Z,80.7
2023-02-21T01:19:23.000Z,80.7
2023-02-21T01:20:35.000Z,80.7
2023-02-21T01:21:47.000Z,80.7
2023-02-21T01:22:59.000Z,80.7
2023-02-21T01:24:12.000Z,80.7
2023-02-21T01:25:23.000Z,80.7
2023-02-21T01:26:35.000Z,80.7
2023-02-21T01:27:47.000Z,80.7
2023-02-21T01:28:59.000Z,80.7
2023-02-21T01:30:12.000Z,80.7
2023-02-21T01:31:24.000Z,80.7
2023-02-21T01:32:36.000Z,80.7
2023-02-21T01:33:48.000Z,80.7
2023-02-21T01:35:00.000Z,80.7
2023-02-21T01:36:13.000Z,80.7
2023-02-21T01:37:25.000Z,80.7
2023-02-21T01:38:37.000Z,80.7
2023-02-21T01:39:49.000Z,80.7
2023-02-21T01:41:00.000Z,80.7
2023-02-21T01:42:12.000Z,80.7
2023-02-21T01:43:25.000Z,80.7
2023-02-21T01:44:37.000Z,80.7
2023-02-21T01:45:49.000Z,80.7
2023-02-21T01:47:01.000Z,80.7
2023-02-21T01:48:13.000Z,80.7
2023-02-21T01:49:26.000Z,80.7
2023-02-21T01:50:38.000Z,80.7
2023-02-21T01:51:50.000Z,80.7
2023-02-21T01:53:02.000Z,80.7
2023-02-21T01:54:14.000Z,80.7
2023-02-21T01:55:26.000Z,80.7
2023-02-21T01:56:38.000Z,80.7
2023-02-21T01:57:50.000Z,80.7
2023-02-21T01:59:02.000Z,80.7
2023-02-21T02:00:14.000Z,80.7
2023-02-21T02:01:26.000Z,80.7
2023-02-21T02:02:39.000Z,80.7
2023-02-21T02:03:51.000Z,80.7
2023-02-21T02:05:03.000Z,80.7
2023-02-21T02:06:15.000Z,80.7
2023-02-21T02:07:27.000Z,80.7
2023-02-21T02:08:40.000Z,80.7
2023-02-21T02:09:52.000Z,80.7
2023-02-21T02:11:04.000Z,80.7
2023-02-21T02:12:15.000Z,80.7
2023-02-21T02:13:27.000Z,80.7
2023-02-21T02:14:39.000Z,80.7
2023-02-21T02:15:52.000Z,80.7
2023-02-21T02:17:04.000Z,80.7
2023-02-21T02:18:16.000Z,80.7
2023-02-21T02:19:28.000Z,80.7
2023-02-21T02:20:40.000Z,80.7
2023-02-21T02:21:53.000Z,80.8
2023-02-21T02:23:05.000Z,80.8
2023-02-21T02:24:17.000Z,80.7
2023-02-21T02:25:29.000Z,80.7
2023-02-21T02:26:41.000Z,80.7
2023-02-21T02:27:53.000Z,80.7
2023-02-21T02:29:05.000Z,80.7
2023-02-21T02:30:17.000Z,80.7
2023-02-21T02:31:29.000Z,80.7
2023-02-21T02:32:41.000Z,80.7
2023-02-21T02:33:53.000Z,80.8
2023-02-21T02:35:06.000Z,80.7
2023-02-21T02:36:18.000Z,80.7
2023-02-21T02:37:30.000Z,80.7
2023-02-21T02:38:42.000Z,80.8
2023-02-21T02:39:54.000Z,80.8
2023-02-21T02:41:07.000Z,80.8
2023-02-21T02:42:19.000Z,80.8
2023-02-21T02:43:30.000Z,80.8
2023-02-21T02:44:42.000Z,80.8
2023-02-21T02:45:54.000Z,80.8
2023-02-21T02:47:06.000Z,80.8
2023-02-21T02:48:19.000Z,80.8
2023-02-21T02:49:31.000Z,80.8
2023-02-21T02:50:42.000Z,80.8
2023-02-21T02:51:54.000Z,80.8
2023-02-21T02:53:06.000Z,80.8
2023-02-21T02:54:19.000Z,80.8
2023-02-21T02:55:31.000Z,80.8
2023-02-21T02:56:43.000Z,80.8
2023-02-21T02:57:55.000Z,80.8
2023-02-21T02:59:07.000Z,80.8
2023-02-21T03:00:20.000Z,80.8
2023-02-21T03:01:32.000Z,80.8
2023-02-21T03:02:44.000Z,80.8
2023-02-21T03:03:56.000Z,80.8
2023-02-21T03:05:08.000Z,80.8
2023-02-21T03:06:19.000Z,80.8
2023-02-21T03:07:32.000Z,80.8
2023-02-21T03:08:44.000Z,80.8
2023-02-21T03:09:56.000Z,80.8
2023-02-21T03:11:08.000Z,80.8
2023-02-21T03:12:20.000Z,80.8
2023-02-21T03:13:33.000Z,80.8
2023-02-21T03:14:45.000Z,80.8
2023-02-21T03:15:57.000Z,80.8
2023-02-21T03:17:09.000Z,80.8
2023-02-21T03:18:21.000Z,80.8
2023-02-21T03:19:33.000Z,80.8
2023-02-21T03:20:46.000Z,80.8
2023-02-21T03:21:57.000Z,80.8
2023-02-21T03:23:09.000Z,80.8
2023-02-21T03:24:21.000Z,80.8
2023-02-21T03:25:33.000Z,80.8
2023-02-21T03:26:46.000Z,80.8
2023-02-21T03:27:58.000Z,80.8
2023-02-21T03:29:10.000Z,80.8
2023-02-21T03:30:22.000Z,80.8
2023-02-21T03:31:34.000Z,80.8
2023-02-21T03:32:47.000Z,80.8
2023-02-21T03:33:59.000Z,80.8
2023-02-21T03:35:11.000Z,80.8
2023-02-21T03:36:23.000Z,80.8
2023-02-21T03:37:34.000Z,80.8
2023-02-21T03:38:46.000Z,80.8
2023-02-21T03:39:59.000Z,80.8
2023-02-21T03:41:11.000Z,80.8
2023-02-21T03:42:23.000Z,80.8
2023-02-21T03:43:35.000Z,80.8
2023-02-21T03:44:47.000Z,80.8
2023-02-21T03:46:00.000Z,80.9
2023-02-21T03:47:12.000Z,80.9
2023-02-21T03:48:24.000Z,80.8
2023-02-21T03:49:36.000Z,80.9
2023-02-21T03:50:48.000Z,80.9
2023-02-21T03:52:00.000Z,80.9
2023-02-21T03:53:12.000Z,80.9
2023-02-21T03:54:24.000Z,80.9
2023-02-21T03:55:36.000Z,80.9
2023-02-21T03:56:48.000Z,80.9
2023-02-21T03:58:00.000Z,80.9
2023-02-21T03:59:13.000Z,80.9
2023-02-21T04:00:25.000Z,81
2023-02-21T04:01:37.000Z,80.9
2023-02-21T04:02:49.000Z,81
2023-02-21T04:04:01.000Z,81
2023-02-21T04:05:14.000Z,81
2023-02-21T04:06:26.000Z,81
2023-02-21T04:07:38.000Z,81
2023-02-21T04:08:49.000Z,80.9
2023-02-21T04:10:01.000Z,81
2023-02-21T04:11:13.000Z,81
2023-02-21T04:12:26.000Z,81
2023-02-21T04:13:38.000Z,81
2023-02-21T04:14:50.000Z,81
2023-02-21T04:16:02.000Z,80.9
2023-02-21T04:17:14.000Z,80.9
2023-02-21T04:18:27.000Z,80.9
2023-02-21T04:19:39.000Z,80.9
2023-02-21T04:20:51.000Z,80.9
2023-02-21T04:22:03.000Z,80.9
2023-02-21T04:23:15.000Z,80.9
2023-02-21T04:24:27.000Z,80.9
2023-02-21T04:25:39.000Z,80.9
2023-02-21T04:26:51.000Z,80.9
2023-02-21T04:28:03.000Z,80.9
2023-02-21T04:29:34.148Z,80.9
2023-02-21T04:30:27.000Z,80.9
2023-02-21T04:31:40.000Z,80.9
2023-02-21T04:32:52.000Z,80.9
2023-02-21T04:34:04.000Z,80.9
2023-02-21T04:35:16.000Z,80.9
2023-02-21T04:36:28.000Z,80.9
2023-02-21T04:37:41.000Z,80.9
2023-02-21T04:38:53.000Z,80.9
2023-02-21T04:40:04.000Z,80.9
2023-02-21T04:41:16.000Z,80.9
2023-02-21T04:42:28.000Z,80.9
2023-02-21T04:43:41.000Z,80.9
2023-02-21T04:44:53.000Z,80.9
2023-02-21T04:46:05.000Z,80.9
2023-02-21T04:47:17.000Z,80.9
2023-02-21T04:48:29.000Z,80.9
2023-02-21T04:49:41.000Z,80.9
2023-02-21T04:50:54.000Z,80.9
2023-02-21T04:52:06.000Z,80.9
2023-02-21T04:53:18.000Z,80.9
2023-02-21T04:54:30.000Z,80.9
2023-02-21T04:55:41.000Z,80.9
2023-02-21T04:56:54.000Z,80.9
2023-02-21T04:58:06.000Z,80.9
2023-02-21T04:59:18.000Z,80.9
2023-02-21T05:00:30.000Z,81
2023-02-21T05:01:42.000Z,80.9
2023-02-21T05:02:55.000Z,81
2023-02-21T05:04:07.000Z,81
2023-02-21T05:05:19.000Z,81
2023-02-21T05:06:31.000Z,81
2023-02-21T05:07:43.000Z,81
2023-02-21T05:08:55.000Z,81
2023-02-21T05:10:08.000Z,81
2023-02-21T05:11:19.000Z,81
2023-02-21T05:12:31.000Z,81
2023-02-21T05:13:43.000Z,81
2023-02-21T05:14:55.000Z,81
2023-02-21T05:16:08.000Z,81
2023-02-21T05:17:20.000Z,81
2023-02-21T05:18:50.827Z,81
2023-02-21T05:19:44.000Z,81
2023-02-21T05:20:56.000Z,81
2023-02-21T05:22:08.000Z,81
2023-02-21T05:23:21.000Z,81
2023-02-21T05:24:33.000Z,81
2023-02-21T05:25:45.000Z,81
2023-02-21T05:26:56.000Z,81
2023-02-21T05:28:27.346Z,81
2023-02-21T05:29:21.000Z,81
2023-02-21T05:30:33.000Z,81
2023-02-21T05:31:45.000Z,81
2023-02-21T05:32:57.000Z,81
2023-02-21T05:34:09.000Z,81
2023-02-21T05:35:22.000Z,81
2023-02-21T05:36:34.000Z,81
2023-02-21T05:37:46.000Z,81
2023-02-21T05:38:58.000Z,81
2023-02-21T05:40:10.000Z,81
2023-02-21T05:41:22.000Z,81
2023-02-21T05:42:34.000Z,81
2023-02-21T05:43:46.000Z,81
2023-02-21T05:44:58.000Z,81
2023-02-21T05:46:10.000Z,81
2023-02-21T05:47:22.000Z,81.1
2023-02-21T05:48:35.000Z,81
2023-02-21T05:49:47.000Z,81
2023-02-21T05:50:59.000Z,81
2023-02-21T05:52:11.000Z,81
2023-02-21T05:53:23.000Z,81
2023-02-21T05:54:36.000Z,81
2023-02-21T05:55:48.000Z,81
2023-02-21T05:57:00.000Z,81
2023-02-21T05:58:11.000Z,81
2023-02-21T05:59:23.000Z,81
2023-02-21T06:00:35.000Z,81
2023-02-21T06:01:48.000Z,81
2023-02-21T06:03:00.000Z,81
2023-02-21T06:04:12.000Z,81
2023-02-21T06:05:24.000Z,81
2023-02-21T06:06:36.000Z,81
2023-02-21T06:07:49.000Z,81
2023-02-21T06:09:01.000Z,81.1
2023-02-21T06:10:13.000Z,81
2023-02-21T06:11:25.000Z,81.1
2023-02-21T06:12:37.000Z,81.1
2023-02-21T06:13:49.000Z,81.1
2023-02-21T06:15:01.000Z,81
2023-02-21T06:16:13.000Z,81.1
2023-02-21T06:17:25.000Z,81
2023-02-21T06:18:37.000Z,81.1
2023-02-21T06:19:49.000Z,81.1
2023-02-21T06:21:02.000Z,81.1
2023-02-21T06:22:14.000Z,81.1
2023-02-21T06:23:26.000Z,81.1
2023-02-21T06:24:38.000Z,81.1
2023-02-21T06:25:50.000Z,81.1
2023-02-21T06:27:03.000Z,81.1
2023-02-21T06:28:15.000Z,81.1
2023-02-21T06:29:26.000Z,81.1
2023-02-21T06:30:38.000Z,81.1
2023-02-21T06:31:50.000Z,81.1
2023-02-21T06:33:03.000Z,81.1
2023-02-21T06:34:15.000Z,81.1
2023-02-21T06:35:27.372Z,81.1
2023-02-21T06:36:39.000Z,81.1
2023-02-21T06:37:51.000Z,81.1
2023-02-21T06:39:03.000Z,81.1
2023-02-21T06:40:16.000Z,81.1
2023-02-21T06:41:28.000Z,81.1
2023-02-21T06:42:40.000Z,81.1
2023-02-21T06:43:52.000Z,81.1
2023-02-21T06:45:03.000Z,81.1
2023-02-21T06:46:16.000Z,81.1
2023-02-21T06:47:28.000Z,81.1
2023-02-21T06:48:40.000Z,81.1
2023-02-21T06:49:52.000Z,81.1
2023-02-21T06:51:04.000Z,81.1
2023-02-21T06:52:15.000Z,81.1
2023-02-21T06:53:28.000Z,81.1
2023-02-21T06:54:58.837Z,81.1
2023-02-21T06:55:52.000Z,81.1
2023-02-21T06:57:04.000Z,81.1
2023-02-21T06:58:16.000Z,81.1
2023-02-21T06:59:29.000Z,81.1
2023-02-21T07:00:41.000Z,81
2023-02-21T07:01:53.000Z,81
2023-02-21T07:03:05.000Z,81
2023-02-21T07:04:17.000Z,81
2023-02-21T07:05:30.000Z,81
2023-02-21T07:06:42.000Z,81.1
2023-02-21T07:07:53.000Z,81
2023-02-21T07:09:05.000Z,81
2023-02-21T07:10:17.000Z,81
2023-02-21T07:11:29.000Z,81
2023-02-21T07:12:42.000Z,81
2023-02-21T07:13:54.000Z,81
2023-02-21T07:15:06.000Z,81
2023-02-21T07:16:18.000Z,81
2023-02-21T07:17:30.000Z,81
2023-02-21T07:18:43.000Z,81
2023-02-21T07:19:55.000Z,81.1
2023-02-21T07:21:07.000Z,81
2023-02-21T07:22:19.000Z,81.1
2023-02-21T07:23:30.000Z,81.1
2023-02-21T07:24:43.000Z,81
2023-02-21T07:25:55.000Z,81
2023-02-21T07:27:07.000Z,81
2023-02-21T07:28:19.000Z,81
2023-02-21T07:29:31.000Z,81
2023-02-21T07:30:43.000Z,81
2023-02-21T07:31:56.000Z,80.9
2023-02-21T07:33:08.000Z,80.9
2023-02-21T07:34:20.000Z,80.7
2023-02-21T07:35:32.000Z,80.7
2023-02-21T07:36:44.000Z,80.7
2023-02-21T07:37:57.000Z,80.7
2023-02-21T07:39:08.000Z,80.7
2023-02-21T07:40:20.000Z,80.8
2023-02-21T07:41:51.160Z,80.8
2023-02-21T07:42:44.000Z,80.8
2023-02-21T07:43:57.000Z,80.7
2023-02-21T07:45:09.000Z,80.7
2023-02-21T07:46:21.000Z,80.6
2023-02-21T07:47:33.000Z,80.6
2023-02-21T07:48:45.000Z,80.7
2023-02-21T07:49:57.000Z,80.7
2023-02-21T07:51:10.000Z,80.7
2023-02-21T07:52:22.000Z,80.7
2023-02-21T07:53:34.000Z,80.8
2023-02-21T07:54:45.000Z,80.8
2023-02-21T07:55:57.000Z,80.7
2023-02-21T07:57:10.000Z,80.8
2023-02-21T07:58:22.000Z,80.8
2023-02-21T07:59:34.000Z,80.8
2023-02-21T08:00:46.000Z,80.8
2023-02-21T08:01:58.000Z,80.8
2023-02-21T08:03:11.000Z,80.8
2023-02-21T08:04:23.000Z,80.8
2023-02-21T08:05:35.000Z,80.8
2023-02-21T08:06:47.000Z,80.8
2023-02-21T08:07:59.000Z,80.8
2023-02-21T08:09:11.000Z,80.9
2023-02-21T08:10:23.000Z,80.8
2023-02-21T08:11:35.000Z,80.8
2023-02-21T08:12:47.000Z,80.7
2023-02-21T08:13:59.000Z,80.7
2023-02-21T08:15:11.000Z,80.7
2023-02-21T08:16:24.000Z,80.7
2023-02-21T08:17:36.000Z,80.7
2023-02-21T08:18:48.000Z,80.8
2023-02-21T08:20:00.000Z,80.8
2023-02-21T08:21:12.000Z,80.8
2023-02-21T08:22:24.000Z,80.8
2023-02-21T08:23:37.000Z,80.8
2023-02-21T08:24:49.000Z,80.8
2023-02-21T08:26:00.000Z,80.8
2023-02-21T08:27:12.000Z,80.8
2023-02-21T08:28:43.464Z,80.8
2023-02-21T08:29:37.000Z,80.8
2023-02-21T08:30:49.000Z,80.7
2023-02-21T08:32:01.000Z,80.8
2023-02-21T08:33:13.000Z,80.8
2023-02-21T08:34:25.000Z,80.8
2023-02-21T08:35:38.000Z,80.8
2023-02-21T08:36:50.000Z,80.8
2023-02-21T08:38:02.000Z,80.9
2023-02-21T08:39:14.000Z,80.8
2023-02-21T08:40:45.333Z,80.8
2023-02-21T08:41:37.000Z,80.8
2023-02-21T08:42:50.000Z,80.8
2023-02-21T08:44:02.000Z,80.9
2023-02-21T08:45:14.000Z,80.8
2023-02-21T08:46:26.000Z,80.8
2023-02-21T08:47:38.000Z,80.9
2023-02-21T08:48:51.000Z,80.9
2023-02-21T08:50:03.000Z,80.9
2023-02-21T08:51:15.000Z,80.8
2023-02-21T08:52:27.000Z,80.8
2023-02-21T08:53:39.000Z,80.8
2023-02-21T08:54:52.000Z,80.8
2023-02-21T08:56:04.000Z,80.8
2023-02-21T08:57:15.000Z,80.8
2023-02-21T08:58:27.000Z,80.9
2023-02-21T08:59:39.000Z,80.9
2023-02-21T09:00:51.000Z,80.9
2023-02-21T09:02:04.000Z,80.9
2023-02-21T09:03:16.000Z,80.8
2023-02-21T09:04:28.000Z,80.8
2023-02-21T09:05:40.000Z,80.8
2023-02-21T09:06:52.000Z,80.8
2023-02-21T09:08:05.000Z,80.8
2023-02-21T09:09:17.000Z,80.8
2023-02-21T09:10:29.000Z,80.8
2023-02-21T09:11:41.000Z,80.7
2023-02-21T09:12:52.000Z,80.7
2023-02-21T09:14:05.000Z,80.7
2023-02-21T09:15:17.000Z,80.7
2023-02-21T09:16:29.000Z,80.7
2023-02-21T09:17:41.000Z,80.7
2023-02-21T09:18:53.000Z,80.7
2023-02-21T09:20:05.000Z,80.7
2023-02-21T09:21:18.000Z,80.7
2023-02-21T09:22:30.000Z,80.7
2023-02-21T09:23:42.000Z,80.6
2023-02-21T09:24:54.000Z,80.6
2023-02-21T09:26:06.000Z,80.6
2023-02-21T09:27:19.000Z,80.6
2023-02-21T09:28:30.000Z,80.6
2023-02-21T09:29:42.000Z,80.5
2023-02-21T09:30:54.000Z,80.6
2023-02-21T09:32:06.000Z,80.5
2023-02-21T09:33:19.000Z,80.5
2023-02-21T09:34:31.000Z,80.4
2023-02-21T09:35:43.000Z,80.4
2023-02-21T09:36:55.000Z,80.4
2023-02-21T09:38:07.000Z,80.4
2023-02-21T09:39:19.000Z,80.3
2023-02-21T09:40:32.000Z,80.3
2023-02-21T09:41:44.000Z,80.1
2023-02-21T09:42:56.000Z,80.1
2023-02-21T09:44:07.000Z,80
2023-02-21T09:45:19.000Z,79.9
2023-02-21T09:46:32.000Z,79.8
2023-02-21T09:47:44.000Z,79.7
2023-02-21T09:48:56.000Z,79.6
2023-02-21T09:50:08.000Z,79.5
2023-02-21T09:51:20.000Z,79.5
2023-02-21T09:52:32.000Z,79.5
2023-02-21T09:53:45.000Z,79.5
2023-02-21T09:55:15.963Z,79.7
2023-02-21T09:56:09.000Z,79.5
2023-02-21T09:57:21.000Z,79.5
2023-02-21T09:58:33.000Z,79.5
2023-02-21T09:59:45.000Z,79.5
2023-02-21T10:00:57.000Z,79.4
2023-02-21T10:02:09.000Z,79.3
2023-02-21T10:03:21.000Z,79.3
2023-02-21T10:04:33.000Z,79.4
2023-02-21T10:05:46.000Z,79.5
2023-02-21T10:06:58.000Z,79.6
2023-02-21T10:08:10.000Z,79.8
2023-02-21T10:09:22.000Z,79.8
2023-02-21T10:10:34.000Z,79.8
2023-02-21T10:11:46.000Z,79.8
2023-02-21T10:12:59.000Z,79.7
2023-02-21T10:14:11.000Z,79.7
2023-02-21T10:15:22.000Z,79.7
2023-02-21T10:16:34.000Z,79.6
2023-02-21T10:17:46.000Z,79.7
2023-02-21T10:18:59.000Z,79.7
2023-02-21T10:20:11.000Z,79.7
2023-02-21T10:21:23.000Z,79.7
2023-02-21T10:22:35.000Z,79.6
2023-02-21T10:23:47.000Z,79.6
2023-02-21T10:25:00.000Z,79.3
2023-02-21T10:26:12.000Z,79.2
2023-02-21T10:27:24.000Z,79.2
2023-02-21T10:28:36.000Z,79.2
2023-02-21T10:29:48.000Z,79.3
2023-02-21T10:30:59.000Z,79.4
2023-02-21T10:32:12.000Z,79.5
2023-02-21T10:33:24.000Z,79.5
2023-02-21T10:34:36.000Z,79.5
2023-02-21T10:35:48.000Z,79.6
2023-02-21T10:37:00.000Z,79.6
2023-02-21T10:38:13.000Z,79.6
2023-02-21T10:39:25.000Z,79.7
2023-02-21T10:40:37.000Z,79.7
2023-02-21T10:41:49.000Z,79.8
2023-02-21T10:43:01.000Z,79.8
2023-02-21T10:44:14.000Z,79.9
2023-02-21T10:45:26.000Z,79.9
2023-02-21T10:46:37.000Z,79.9
2023-02-21T10:47:49.000Z,80
2023-02-21T10:49:01.000Z,80.1
2023-02-21T10:50:13.000Z,80.2
2023-02-21T10:51:26.000Z,80.3
2023-02-21T10:52:38.000Z,80.3
2023-02-21T10:53:49.000Z,80.4
2023-02-21T10:55:01.000Z,80.5
2023-02-21T10:56:13.000Z,80.5
2023-02-21T10:57:26.000Z,80.6
2023-02-21T10:58:38.000Z,80.6
2023-02-21T10:59:50.000Z,80.7
2023-02-21T11:01:02.000Z,80.7
2023-02-21T11:02:14.000Z,80.8
2023-02-21T11:03:27.000Z,80.8
2023-02-21T11:04:39.000Z,81
2023-02-21T11:05:51.000Z,81
2023-02-21T11:07:03.000Z,81
2023-02-21T11:08:15.000Z,81
2023-02-21T11:09:26.000Z,81.1
2023-02-21T11:10:39.000Z,81.1
2023-02-21T11:11:51.000Z,81
2023-02-21T11:13:03.000Z,81
2023-02-21T11:14:15.000Z,81
2023-02-21T11:15:46.531Z,81
2023-02-21T11:16:40.000Z,80.9
2023-02-21T11:17:52.000Z,80.9
2023-02-21T11:19:04.000Z,80.9
2023-02-21T11:20:35.281Z,80.9
2023-02-21T11:21:28.000Z,80.9
2023-02-21T11:22:41.000Z,80.9
2023-02-21T11:23:53.000Z,80.9
2023-02-21T11:25:04.000Z,80.9
2023-02-21T11:26:16.000Z,80.9
2023-02-21T11:27:28.000Z,80.8
2023-02-21T11:28:40.000Z,80.6
2023-02-21T11:29:53.000Z,80.5
2023-02-21T11:31:05.000Z,80.5
2023-02-21T11:32:17.000Z,80.5
2023-02-21T11:33:29.000Z,80.6
2023-02-21T11:34:41.000Z,80.7
2023-02-21T11:35:54.000Z,80.6
2023-02-21T11:37:06.000Z,80.6
2023-02-21T11:38:18.000Z,80.7
2023-02-21T11:39:30.000Z,80.8
2023-02-21T11:40:41.000Z,80.6
2023-02-21T11:41:53.000Z,80.5
2023-02-21T11:43:06.000Z,80.5
2023-02-21T11:44:18.000Z,80.4
2023-02-21T11:45:30.000Z,80.4
2023-02-21T11:46:42.000Z,80.3
2023-02-21T11:47:54.000Z,80.2
2023-02-21T11:49:07.000Z,80.2
2023-02-21T11:50:19.000Z,80.2
2023-02-21T11:51:31.000Z,80.2
2023-02-21T11:52:43.000Z,80.2
2023-02-21T11:53:55.000Z,80.2
2023-02-21T11:55:08.000Z,80.2
2023-02-21T11:56:19.000Z,80.1
2023-02-21T11:57:31.000Z,79.9
2023-02-21T11:58:43.000Z,79.9
2023-02-21T11:59:55.000Z,79.8
2023-02-21T12:01:07.000Z,79.7
2023-02-21T12:02:20.000Z,79.7
2023-02-21T12:03:32.000Z,79.7
2023-02-21T12:04:44.000Z,79.7
2023-02-21T12:06:15.412Z,79.8
2023-02-21T12:07:08.000Z,79.8
2023-02-21T12:08:21.000Z,79.8
2023-02-21T12:09:33.000Z,79.9
2023-02-21T12:10:45.000Z,80
2023-02-21T12:11:56.000Z,80
2023-02-21T12:13:08.000Z,80.2
2023-02-21T12:14:21.000Z,80.2
2023-02-21T12:15:33.000Z,80.3
2023-02-21T12:16:45.000Z,80.3
2023-02-21T12:17:57.000Z,80.3
2023-02-21T12:19:09.000Z,80.3
2023-02-21T12:20:21.000Z,80.3
2023-02-21T12:21:34.000Z,80.5
2023-02-21T12:22:46.000Z,80.5
2023-02-21T12:23:58.000Z,80.5
2023-02-21T12:25:10.000Z,80.5
2023-02-21T12:26:22.000Z,80.5
2023-02-21T12:27:34.000Z,80.5
2023-02-21T12:28:46.000Z,80.5
2023-02-21T12:29:58.000Z,80.6
2023-02-21T12:31:10.000Z,80.6
2023-02-21T12:32:22.000Z,80.6
2023-02-21T12:33:35.000Z,80.7
2023-02-21T12:34:47.000Z,80.7
2023-02-21T12:36:18.098Z,80.7
2023-02-21T12:37:11.000Z,80.7
2023-02-21T12:38:23.000Z,80.7
2023-02-21T12:39:35.000Z,80.7
2023-02-21T12:40:48.000Z,80.7
2023-02-21T12:42:00.000Z,80.7
2023-02-21T12:43:11.000Z,80.7
2023-02-21T12:44:23.000Z,80.7
2023-02-21T12:45:35.000Z,80.7
2023-02-21T12:46:48.000Z,80.7
2023-02-21T12:48:00.000Z,80.7
2023-02-21T12:49:12.000Z,80.7
2023-02-21T12:50:24.000Z,80.6
2023-02-21T12:51:36.000Z,80.6
2023-02-21T12:52:49.000Z,80.6
2023-02-21T12:54:01.000Z,80.6
2023-02-21T12:55:13.000Z,80.6
2023-02-21T12:56:25.000Z,80.7
2023-02-21T12:57:37.000Z,80.7
2023-02-21T12:58:48.000Z,80.7
2023-02-21T13:00:01.000Z,80.7
2023-02-21T13:01:13.000Z,80.7
2023-02-21T13:02:25.000Z,80.7
2023-02-21T13:03:37.000Z,80.7
2023-02-21T13:04:49.000Z,80.7
2023-02-21T13:06:02.000Z,80.7
2023-02-21T13:07:14.000Z,80.7
2023-02-21T13:08:26.000Z,80.8
2023-02-21T13:09:38.000Z,80.8
2023-02-21T13:10:50.000Z,80.8
2023-02-21T13:12:02.000Z,80.8
2023-02-21T13:13:15.000Z,80.8
2023-02-21T13:14:26.000Z,80.8
2023-02-21T13:15:38.000Z,80.8
2023-02-21T13:16:50.000Z,80.8
2023-02-21T13:18:02.000Z,80.8
2023-02-21T13:19:15.000Z,80.8
2023-02-21T13:20:27.000Z,80.8
2023-02-21T13:21:39.000Z,80.9
2023-02-21T13:22:51.000Z,80.9
2023-02-21T13:24:03.000Z,80.9
2023-02-21T13:25:16.000Z,80.9
2023-02-21T13:26:28.000Z,80.9
2023-02-21T13:27:40.000Z,80.9
2023-02-21T13:28:52.000Z,80.9
2023-02-21T13:30:03.000Z,81
2023-02-21T13:31:15.000Z,81
2023-02-21T13:32:28.000Z,80.9
2023-02-21T13:33:40.000Z,80.9
2023-02-21T13:34:52.000Z,80.9
2023-02-21T13:36:04.000Z,80.9
2023-02-21T13:37:16.000Z,80.9
2023-02-21T13:38:29.000Z,80.9
2023-02-21T13:39:41.000Z,80.9
2023-02-21T13:40:53.000Z,80.9
2023-02-21T13:42:05.000Z,80.9
2023-02-21T13:43:17.000Z,80.8
2023-02-21T13:44:48.737Z,80.8
2023-02-21T13:45:41.000Z,80.8
2023-02-21T13:46:53.000Z,80.8
2023-02-21T13:48:05.000Z,80.8
2023-02-21T13:49:17.000Z,80.9
2023-02-21T13:50:29.000Z,80.9
2023-02-21T13:51:42.000Z,80.9
2023-02-21T13:52:54.000Z,80.9
2023-02-21T13:54:06.000Z,80.9
2023-02-21T13:55:18.000Z,81
2023-02-21T13:56:30.000Z,80.9
2023-02-21T13:57:43.000Z,80.9
2023-02-21T13:58:55.000Z,80.9
2023-02-21T14:00:07.000Z,80.9
2023-02-21T14:01:18.000Z,80.9
2023-02-21T14:02:30.000Z,80.9
2023-02-21T14:03:42.000Z,80.9
2023-02-21T14:04:55.000Z,80.9
2023-02-21T14:06:07.000Z,80.9
2023-02-21T14:07:19.000Z,80.9
2023-02-21T14:08:31.000Z,80.9
2023-02-21T14:09:43.000Z,80.8
2023-02-21T14:10:56.000Z,80.8
2023-02-21T14:12:08.000Z,80.8
2023-02-21T14:13:20.000Z,80.8
2023-02-21T14:14:32.000Z,80.8
2023-02-21T14:15:44.000Z,80.8
2023-02-21T14:16:56.000Z,80.8
2023-02-21T14:18:08.000Z,80.8
2023-02-21T14:19:20.000Z,80.8
2023-02-21T14:20:32.000Z,80.8
2023-02-21T14:21:44.000Z,80.8
2023-02-21T14:22:56.000Z,80.8
2023-02-21T14:24:09.000Z,80.7
2023-02-21T14:25:21.000Z,80.7
2023-02-21T14:26:33.000Z,80.7
2023-02-21T14:27:45.000Z,80.7
2023-02-21T14:28:57.000Z,80.7
2023-02-21T14:30:10.000Z,80.7
2023-02-21T14:31:22.000Z,80.7
2023-02-21T14:32:33.000Z,80.7
2023-02-21T14:33:45.000Z,80.8
2023-02-21T14:34:57.000Z,80.8
2023-02-21T14:36:09.000Z,80.8
2023-02-21T14:37:22.000Z,80.8
2023-02-21T14:38:34.000Z,80.8
2023-02-21T14:39:46.000Z,80.9
2023-02-21T14:40:58.000Z,80.8
2023-02-21T14:42:10.000Z,80.8
2023-02-21T14:43:23.000Z,80.8
2023-02-21T14:44:35.000Z,80.8
2023-02-21T14:45:47.000Z,80.8
2023-02-21T14:46:59.000Z,80.8
2023-02-21T14:48:10.000Z,80.9
2023-02-21T14:49:23.000Z,80.9
2023-02-21T14:50:35.000Z,80.9
2023-02-21T14:52:06.163Z,80.9
2023-02-21T14:52:59.000Z,80.9
2023-02-21T14:54:11.000Z,80.9
2023-02-21T14:55:22.000Z,80.9
2023-02-21T14:56:35.000Z,80.9
2023-02-21T14:57:47.000Z,80.9
2023-02-21T14:58:59.000Z,80.9
2023-02-21T15:00:11.000Z,80.9
2023-02-21T15:01:23.000Z,80.9
2023-02-21T15:02:36.000Z,81
2023-02-21T15:03:48.000Z,81
2023-02-21T15:05:00.000Z,81
2023-02-21T15:06:12.000Z,81
2023-02-21T15:07:24.000Z,81
2023-02-21T15:08:36.000Z,81
2023-02-21T15:09:49.000Z,81
2023-02-21T15:11:00.000Z,81
2023-02-21T15:12:12.000Z,81
2023-02-21T15:13:24.000Z,81
2023-02-21T15:14:36.000Z,81
2023-02-21T15:15:49.000Z,81
2023-02-21T15:17:01.000Z,81
2023-02-21T15:18:13.000Z,81
2023-02-21T15:19:25.000Z,81.1
2023-02-21T15:20:37.000Z,81.1
2023-02-21T15:21:50.000Z,81.1
2023-02-21T15:23:02.000Z,81.1
2023-02-21T15:24:14.000Z,81.1
2023-02-21T15:25:26.000Z,81.1
2023-02-21T15:26:37.000Z,81.1
2023-02-21T15:27:49.000Z,81.1
2023-02-21T15:29:02.000Z,81.1
2023-02-21T15:30:14.000Z,81.1
2023-02-21T15:31:26.000Z,81.1
2023-02-21T15:32:38.000Z,81.1
2023-02-21T15:33:50.000Z,81.1
2023-02-21T15:35:03.000Z,81.1
2023-02-21T15:36:15.000Z,81.2
2023-02-21T15:37:27.000Z,81.1
2023-02-21T15:38:39.000Z,81.2
2023-02-21T15:39:51.000Z,81.2
2023-02-21T15:41:03.000Z,81.2
2023-02-21T15:42:15.000Z,81.2
2023-02-21T15:43:27.000Z,81.2
2023-02-21T15:44:39.000Z,81.2
2023-02-21T15:45:51.000Z,81.2
2023-02-21T15:47:03.000Z,81.2
2023-02-21T15:48:16.000Z,81.3
2023-02-21T15:49:28.000Z,81.3
2023-02-21T15:50:40.000Z,81.3
2023-02-21T15:51:52.000Z,81.3
2023-02-21T15:53:04.000Z,81.4
2023-02-21T15:54:17.000Z,81.4
2023-02-21T15:55:29.000Z,81.4
2023-02-21T15:56:41.000Z,81.4
2023-02-21T15:57:52.000Z,81.4
2023-02-21T15:59:04.000Z,81.4
2023-02-21T16:00:16.000Z,81.4
2023-02-21T16:01:29.000Z,81.5
2023-02-21T16:02:41.000Z,81.5
2023-02-21T16:03:53.000Z,81.5
2023-02-21T16:05:05.000Z,81.5
2023-02-21T16:06:17.000Z,81.5
2023-02-21T16:07:30.000Z,81.5
2023-02-21T16:08:42.000Z,81.5